sensor_id;sensor_type;location;lat;lon;timestamp;pressure;altitude;pressure_sealevel;temperature;humidity
7990;BME280;4040;42.848;23.034;2022-11-10T00:01:15;95608.34;;;3.57;100.00
7990;BME280;4040;42.848;23.034;2022-11-10T00:07:24;95588.75;;;3.37;100.00
7990;BME280;4040;42.848;23.034;2022-11-10T00:13:13;95614.03;;;3.43;100.00
7990;BME280;4040;42.848;23.034;2022-11-10T00:19:03;95605.50;;;3.38;100.00
7990;BME280;4040;42.848;23.034;2022-11-10T00:24:51;95615.94;;;3.31;100.00
7990;BME280;4040;42.848;23.034;2022-11-10T00:30:40;95609.06;;;3.30;100.00
7990;BME280;4040;42.848;23.034;2022-11-10T00:36:30;95599.19;;;3.30;100.00
7990;BME280;4040;42.848;23.034;2022-11-10T00:42:18;95594.22;;;3.17;100.00
7990;BME280;4040;42.848;23.034;2022-11-10T00:48:07;95600.00;;;3.07;100.00
7990;BME280;4040;42.848;23.034;2022-11-10T00:53:58;95600.22;;;3.02;100.00
7990;BME280;4040;42.848;23.034;2022-11-10T01:00:08;95589.56;;;3.14;100.00
7990;BME280;4040;42.848;23.034;2022-11-10T01:09:59;95591.03;;;2.87;100.00
7990;BME280;4040;42.848;23.034;2022-11-10T01:15:48;95582.94;;;2.72;100.00
7990;BME280;4040;42.848;23.034;2022-11-10T01:21:36;95583.81;;;2.76;100.00
7990;BME280;4040;42.848;23.034;2022-11-10T01:27:26;95590.16;;;2.71;100.00
7990;BME280;4040;42.848;23.034;2022-11-10T01:33:15;95589.38;;;2.71;100.00
7990;BME280;4040;42.848;23.034;2022-11-10T01:39:05;95591.38;;;2.74;100.00
7990;BME280;4040;42.848;23.034;2022-11-10T01:51:26;95591.13;;;3.03;100.00
7990;BME280;4040;42.848;23.034;2022-11-10T01:57:16;95595.56;;;3.11;100.00
7990;BME280;4040;42.848;23.034;2022-11-10T02:03:08;95598.00;;;3.16;100.00
7990;BME280;4040;42.848;23.034;2022-11-10T02:13:21;95603.97;;;3.64;100.00
7990;BME280;4040;42.848;23.034;2022-11-10T02:19:13;95604.97;;;3.72;100.00
7990;BME280;4040;42.848;23.034;2022-11-10T02:25:04;95598.91;;;3.87;100.00
7990;BME280;4040;42.848;23.034;2022-11-10T02:30:53;95588.94;;;4.27;100.00
7990;BME280;4040;42.848;23.034;2022-11-10T02:36:42;95587.59;;;4.64;100.00
7990;BME280;4040;42.848;23.034;2022-11-10T02:42:33;95593.63;;;4.91;100.00
7990;BME280;4040;42.848;23.034;2022-11-10T02:48:21;95591.53;;;5.00;100.00
7990;BME280;4040;42.848;23.034;2022-11-10T02:54:10;95589.78;;;5.23;100.00
7990;BME280;4040;42.848;23.034;2022-11-10T03:00:00;95604.25;;;5.22;100.00
7990;BME280;4040;42.848;23.034;2022-11-10T03:05:49;95605.66;;;5.16;100.00
7990;BME280;4040;42.848;23.034;2022-11-10T03:16:01;95603.66;;;5.13;100.00
7990;BME280;4040;42.848;23.034;2022-11-10T03:21:49;95606.81;;;5.34;100.00
7990;BME280;4040;42.848;23.034;2022-11-10T03:27:38;95600.78;;;5.37;100.00
7990;BME280;4040;42.848;23.034;2022-11-10T03:33:28;95609.81;;;5.67;100.00
7990;BME280;4040;42.848;23.034;2022-11-10T03:39:17;95605.91;;;5.99;100.00
7990;BME280;4040;42.848;23.034;2022-11-10T03:45:06;95606.91;;;6.10;100.00
7990;BME280;4040;42.848;23.034;2022-11-10T03:50:56;95608.47;;;6.11;100.00
7990;BME280;4040;42.848;23.034;2022-11-10T03:56:45;95608.56;;;6.18;100.00
7990;BME280;4040;42.848;23.034;2022-11-10T04:02:34;95613.44;;;5.94;100.00
7990;BME280;4040;42.848;23.034;2022-11-10T04:08:24;95608.59;;;5.80;100.00
7990;BME280;4040;42.848;23.034;2022-11-10T04:18:52;95621.66;;;5.51;100.00
7990;BME280;4040;42.848;23.034;2022-11-10T04:24:42;95614.84;;;5.53;100.00
7990;BME280;4040;42.848;23.034;2022-11-10T04:30:31;95627.78;;;5.51;100.00
7990;BME280;4040;42.848;23.034;2022-11-10T04:36:21;95618.97;;;5.32;100.00
7990;BME280;4040;42.848;23.034;2022-11-10T04:42:11;95625.78;;;5.29;100.00
7990;BME280;4040;42.848;23.034;2022-11-10T04:48:00;95625.97;;;5.05;100.00
7990;BME280;4040;42.848;23.034;2022-11-10T04:53:48;95634.06;;;4.93;100.00
7990;BME280;4040;42.848;23.034;2022-11-10T04:59:39;95624.59;;;4.81;100.00
7990;BME280;4040;42.848;23.034;2022-11-10T05:05:27;95623.41;;;4.63;100.00
7990;BME280;4040;42.848;23.034;2022-11-10T05:11:17;95621.50;;;4.48;100.00
7990;BME280;4040;42.848;23.034;2022-11-10T05:21:29;95628.91;;;4.11;100.00
7990;BME280;4040;42.848;23.034;2022-11-10T05:27:17;95645.97;;;3.95;100.00
7990;BME280;4040;42.848;23.034;2022-11-10T05:33:06;95643.44;;;4.14;100.00
7990;BME280;4040;42.848;23.034;2022-11-10T05:38:56;95642.28;;;4.27;100.00
7990;BME280;4040;42.848;23.034;2022-11-10T05:44:45;95654.69;;;4.35;100.00
7990;BME280;4040;42.848;23.034;2022-11-10T05:50:34;95656.28;;;4.67;100.00
7990;BME280;4040;42.848;23.034;2022-11-10T05:56:24;95670.59;;;4.89;100.00
7990;BME280;4040;42.848;23.034;2022-11-10T06:02:13;95670.25;;;5.06;100.00
7990;BME280;4040;42.848;23.034;2022-11-10T06:08:03;95680.25;;;5.09;100.00
7990;BME280;4040;42.848;23.034;2022-11-10T06:13:53;95686.44;;;5.13;100.00
7990;BME280;4040;42.848;23.034;2022-11-10T06:24:03;95700.44;;;6.07;100.00
7990;BME280;4040;42.848;23.034;2022-11-10T06:29:53;95694.13;;;6.75;100.00
7990;BME280;4040;42.848;23.034;2022-11-10T06:35:42;95703.88;;;6.45;100.00
7990;BME280;4040;42.848;23.034;2022-11-10T06:41:32;95708.84;;;7.07;100.00
7990;BME280;4040;42.848;23.034;2022-11-10T06:47:22;95713.59;;;7.62;100.00
7990;BME280;4040;42.848;23.034;2022-11-10T06:53:11;95713.47;;;8.07;100.00
7990;BME280;4040;42.848;23.034;2022-11-10T06:59:00;95714.94;;;8.60;100.00
7990;BME280;4040;42.848;23.034;2022-11-10T07:04:50;95709.28;;;9.05;100.00
7990;BME280;4040;42.848;23.034;2022-11-10T07:10:39;95716.06;;;9.32;100.00
7990;BME280;4040;42.848;23.034;2022-11-10T07:16:27;95725.16;;;9.64;100.00
7990;BME280;4040;42.848;23.034;2022-11-10T07:26:10;95717.97;;;10.35;100.00
7990;BME280;4040;42.848;23.034;2022-11-10T07:31:40;95723.44;;;10.53;100.00
7990;BME280;4040;42.848;23.034;2022-11-10T07:37:10;95712.72;;;10.63;100.00
7990;BME280;4040;42.848;23.034;2022-11-10T07:43:01;95725.56;;;11.01;100.00
7990;BME280;4040;42.848;23.034;2022-11-10T07:48:49;95726.00;;;11.52;100.00
7990;BME280;4040;42.848;23.034;2022-11-10T07:54:38;95724.47;;;11.93;100.00
7990;BME280;4040;42.848;23.034;2022-11-10T08:00:29;95727.56;;;12.02;100.00
7990;BME280;4040;42.848;23.034;2022-11-10T08:06:18;95729.84;;;12.25;100.00
7990;BME280;4040;42.848;23.034;2022-11-10T08:12:07;95721.75;;;12.28;100.00
7990;BME280;4040;42.848;23.034;2022-11-10T08:18:01;95733.28;;;12.29;100.00
7990;BME280;4040;42.848;23.034;2022-11-10T08:27:32;95733.72;;;12.27;100.00
7990;BME280;4040;42.848;23.034;2022-11-10T08:33:23;95730.63;;;12.15;100.00
7990;BME280;4040;42.848;23.034;2022-11-10T08:39:11;95739.91;;;11.89;100.00
7990;BME280;4040;42.848;23.034;2022-11-10T08:45:00;95731.44;;;11.87;100.00
7990;BME280;4040;42.848;23.034;2022-11-10T08:50:51;95737.59;;;11.70;100.00
7990;BME280;4040;42.848;23.034;2022-11-10T08:56:39;95745.34;;;11.79;100.00
7990;BME280;4040;42.848;23.034;2022-11-10T09:02:28;95739.91;;;12.03;100.00
7990;BME280;4040;42.848;23.034;2022-11-10T09:08:19;95750.66;;;11.47;100.00
7990;BME280;4040;42.848;23.034;2022-11-10T09:14:08;95744.50;;;12.13;100.00
7990;BME280;4040;42.848;23.034;2022-11-10T09:19:57;95744.34;;;12.93;100.00
7990;BME280;4040;42.848;23.034;2022-11-10T09:29:52;95732.81;;;12.65;100.00
7990;BME280;4040;42.848;23.034;2022-11-10T09:35:48;95749.66;;;13.11;100.00
7990;BME280;4040;42.848;23.034;2022-11-10T09:41:47;95742.81;;;12.75;100.00
7990;BME280;4040;42.848;23.034;2022-11-10T09:47:43;95741.06;;;13.26;100.00
7990;BME280;4040;42.848;23.034;2022-11-10T09:53:36;95734.78;;;13.40;100.00
7990;BME280;4040;42.848;23.034;2022-11-10T09:59:27;95719.38;;;16.47;100.00
7990;BME280;4040;42.848;23.034;2022-11-10T10:05:34;95722.81;;;15.29;100.00
7990;BME280;4040;42.848;23.034;2022-11-10T10:11:40;95729.06;;;14.63;100.00
7990;BME280;4040;42.848;23.034;2022-11-10T10:17:37;95719.94;;;14.50;100.00
7990;BME280;4040;42.848;23.034;2022-11-10T10:23:33;95718.69;;;14.21;100.00
7990;BME280;4040;42.848;23.034;2022-11-10T10:29:24;95700.19;;;19.79;73.10
7990;BME280;4040;42.848;23.034;2022-11-10T10:35:16;95707.19;;;20.73;61.48
7990;BME280;4040;42.848;23.034;2022-11-10T10:41:15;95706.28;;;19.83;61.76
7990;BME280;4040;42.848;23.034;2022-11-10T10:47:07;95692.88;;;24.44;50.91
7990;BME280;4040;42.848;23.034;2022-11-10T10:53:07;95668.16;;;28.16;39.52
7990;BME280;4040;42.848;23.034;2022-11-10T10:59:00;95677.00;;;24.62;43.38
7990;BME280;4040;42.848;23.034;2022-11-10T11:05:09;95641.44;;;27.14;39.03
7990;BME280;4040;42.848;23.034;2022-11-10T11:11:07;95672.88;;;23.37;44.94
7990;BME280;4040;42.848;23.034;2022-11-10T11:17:00;95660.72;;;25.75;40.96
7990;BME280;4040;42.848;23.034;2022-11-10T11:22:52;95642.69;;;28.06;38.18
7990;BME280;4040;42.848;23.034;2022-11-10T11:33:32;95646.19;;;26.29;40.75
7990;BME280;4040;42.848;23.034;2022-11-10T11:39:52;95639.25;;;26.98;37.49
7990;BME280;4040;42.848;23.034;2022-11-10T11:45:51;95628.38;;;26.10;39.15
7990;BME280;4040;42.848;23.034;2022-11-10T11:51:53;95636.69;;;23.71;43.35
7990;BME280;4040;42.848;23.034;2022-11-10T11:57:59;95641.22;;;21.22;48.17
7990;BME280;4040;42.848;23.034;2022-11-10T12:04:21;95641.16;;;17.45;63.23
7990;BME280;4040;42.848;23.034;2022-11-10T12:10:29;95635.91;;;16.24;80.25
7990;BME280;4040;42.848;23.034;2022-11-10T12:16:25;95641.34;;;16.24;87.32
7990;BME280;4040;42.848;23.034;2022-11-10T12:22:20;95641.00;;;16.22;88.51
7990;BME280;4040;42.848;23.034;2022-11-10T12:28:17;95635.91;;;16.24;89.35
7990;BME280;4040;42.848;23.034;2022-11-10T12:34:14;95638.97;;;15.61;90.09
7990;BME280;4040;42.848;23.034;2022-11-10T12:40:14;95641.47;;;15.75;88.43
7990;BME280;4040;42.848;23.034;2022-11-10T12:46:08;95643.31;;;16.01;90.62
7990;BME280;4040;42.848;23.034;2022-11-10T12:52:02;95628.94;;;15.81;94.48
7990;BME280;4040;42.848;23.034;2022-11-10T12:57:54;95641.47;;;15.75;89.83
7990;BME280;4040;42.848;23.034;2022-11-10T13:03:54;95636.09;;;15.71;89.04
7990;BME280;4040;42.848;23.034;2022-11-10T13:09:43;95641.56;;;15.91;91.89
7990;BME280;4040;42.848;23.034;2022-11-10T13:15:47;95636.69;;;15.82;91.98
7990;BME280;4040;42.848;23.034;2022-11-10T13:22:11;95633.00;;;15.69;91.86
7990;BME280;4040;42.848;23.034;2022-11-10T13:28:54;95636.25;;;15.61;93.84
7990;BME280;4040;42.848;23.034;2022-11-10T13:34:43;95633.34;;;15.48;97.05
7990;BME280;4040;42.848;23.034;2022-11-10T13:40:35;95638.19;;;15.37;97.38
7990;BME280;4040;42.848;23.034;2022-11-10T13:46:33;95649.00;;;15.41;97.78
7990;BME280;4040;42.848;23.034;2022-11-10T13:52:28;95647.59;;;15.29;98.24
7990;BME280;4040;42.848;23.034;2022-11-10T13:58:25;95650.75;;;15.24;100.00
7990;BME280;4040;42.848;23.034;2022-11-10T14:04:37;95649.44;;;15.10;100.00
7990;BME280;4040;42.848;23.034;2022-11-10T14:10:34;95652.59;;;15.05;100.00
7990;BME280;4040;42.848;23.034;2022-11-10T14:16:29;95662.13;;;14.90;100.00
7990;BME280;4040;42.848;23.034;2022-11-10T14:22:23;95654.81;;;14.87;100.00
7990;BME280;4040;42.848;23.034;2022-11-10T14:28:24;95657.59;;;14.80;100.00
7990;BME280;4040;42.848;23.034;2022-11-10T14:34:16;95640.69;;;14.39;100.00
7990;BME280;4040;42.848;23.034;2022-11-10T14:40:11;95674.38;;;14.38;100.00
7990;BME280;4040;42.848;23.034;2022-11-10T14:46:04;95667.53;;;14.26;100.00
7990;BME280;4040;42.848;23.034;2022-11-10T14:51:57;95678.00;;;13.84;100.00
7990;BME280;4040;42.848;23.034;2022-11-10T14:57:56;95679.78;;;13.53;100.00
7990;BME280;4040;42.848;23.034;2022-11-10T15:03:48;95689.72;;;13.12;100.00
7990;BME280;4040;42.848;23.034;2022-11-10T15:09:38;95700.28;;;12.86;100.00
7990;BME280;4040;42.848;23.034;2022-11-10T15:15:26;95703.53;;;12.46;100.00
7990;BME280;4040;42.848;23.034;2022-11-10T15:21:17;95720.56;;;12.29;100.00
7990;BME280;4040;42.848;23.034;2022-11-10T15:27:12;95722.91;;;12.20;100.00
7990;BME280;4040;42.848;23.034;2022-11-10T15:33:08;95725.25;;;11.83;100.00
7990;BME280;4040;42.848;23.034;2022-11-10T15:39:02;95732.16;;;11.49;100.00
7990;BME280;4040;42.848;23.034;2022-11-10T15:44:52;95740.97;;;11.11;100.00
7990;BME280;4040;42.848;23.034;2022-11-10T15:50:43;95742.00;;;10.75;100.00
7990;BME280;4040;42.848;23.034;2022-11-10T15:56:32;95753.13;;;10.67;100.00
7990;BME280;4040;42.848;23.034;2022-11-10T16:02:24;95758.84;;;10.51;100.00
7990;BME280;4040;42.848;23.034;2022-11-10T16:08:14;95764.94;;;10.41;100.00
7990;BME280;4040;42.848;23.034;2022-11-10T16:14:03;95767.91;;;10.22;100.00
7990;BME280;4040;42.848;23.034;2022-11-10T16:19:54;95778.50;;;10.01;100.00
7990;BME280;4040;42.848;23.034;2022-11-10T16:25:43;95769.13;;;9.82;100.00
7990;BME280;4040;42.848;23.034;2022-11-10T16:35:36;95788.13;;;9.56;100.00
7990;BME280;4040;42.848;23.034;2022-11-10T16:41:24;95801.00;;;9.40;100.00
7990;BME280;4040;42.848;23.034;2022-11-10T16:47:15;95803.19;;;9.27;100.00
7990;BME280;4040;42.848;23.034;2022-11-10T16:53:13;95769.81;;;8.92;100.00
7990;BME280;4040;42.848;23.034;2022-11-10T16:59:03;95806.69;;;8.95;100.00
7990;BME280;4040;42.848;23.034;2022-11-10T17:04:52;95815.03;;;8.90;100.00
7990;BME280;4040;42.848;23.034;2022-11-10T17:10:42;95820.34;;;8.83;100.00
7990;BME280;4040;42.848;23.034;2022-11-10T17:16:32;95811.69;;;8.67;100.00
7990;BME280;4040;42.848;23.034;2022-11-10T17:22:21;95787.53;;;8.37;100.00
7990;BME280;4040;42.848;23.034;2022-11-10T17:28:14;95831.50;;;8.55;100.00
7990;BME280;4040;42.848;23.034;2022-11-10T17:38:25;95848.25;;;8.49;100.00
7990;BME280;4040;42.848;23.034;2022-11-10T17:44:16;95855.84;;;8.43;100.00
7990;BME280;4040;42.848;23.034;2022-11-10T17:50:06;95849.00;;;8.20;100.00
7990;BME280;4040;42.848;23.034;2022-11-10T17:55:55;95854.50;;;8.08;100.00
7990;BME280;4040;42.848;23.034;2022-11-10T18:01:45;95864.28;;;7.97;100.00
7990;BME280;4040;42.848;23.034;2022-11-10T18:07:34;95861.53;;;7.90;100.00
7990;BME280;4040;42.848;23.034;2022-11-10T18:13:22;95876.94;;;7.74;100.00
7990;BME280;4040;42.848;23.034;2022-11-10T18:19:12;95873.38;;;7.66;100.00
7990;BME280;4040;42.848;23.034;2022-11-10T18:25:01;95880.75;;;7.73;100.00
7990;BME280;4040;42.848;23.034;2022-11-10T18:30:49;95877.53;;;7.64;100.00
7990;BME280;4040;42.848;23.034;2022-11-10T18:41:02;95886.31;;;7.42;100.00
7990;BME280;4040;42.848;23.034;2022-11-10T18:47:13;95892.31;;;7.17;100.00
7990;BME280;4040;42.848;23.034;2022-11-10T18:53:02;95906.34;;;6.91;100.00
7990;BME280;4040;42.848;23.034;2022-11-10T18:58:52;95907.22;;;6.95;100.00
7990;BME280;4040;42.848;23.034;2022-11-10T19:04:40;95903.78;;;6.79;100.00
7990;BME280;4040;42.848;23.034;2022-11-10T19:10:29;95905.06;;;6.51;100.00
7990;BME280;4040;42.848;23.034;2022-11-10T19:16:18;95917.25;;;6.48;100.00
7990;BME280;4040;42.848;23.034;2022-11-10T19:22:07;95920.97;;;6.44;100.00
7990;BME280;4040;42.848;23.034;2022-11-10T19:27:56;95921.91;;;6.36;100.00
7990;BME280;4040;42.848;23.034;2022-11-10T19:33:46;95938.84;;;6.24;100.00
7990;BME280;4040;42.848;23.034;2022-11-10T19:43:58;95939.88;;;6.04;100.00
7990;BME280;4040;42.848;23.034;2022-11-10T19:49:48;95944.03;;;6.17;100.00
7990;BME280;4040;42.848;23.034;2022-11-10T19:55:37;95939.38;;;6.14;100.00
7990;BME280;4040;42.848;23.034;2022-11-10T20:01:26;95949.38;;;6.17;100.00
7990;BME280;4040;42.848;23.034;2022-11-10T20:07:16;95949.38;;;6.17;100.00
7990;BME280;4040;42.848;23.034;2022-11-10T20:13:22;95963.69;;;6.09;100.00
7990;BME280;4040;42.848;23.034;2022-11-10T20:19:11;95966.38;;;6.25;100.00
7990;BME280;4040;42.848;23.034;2022-11-10T20:25:01;95964.28;;;6.34;100.00
7990;BME280;4040;42.848;23.034;2022-11-10T20:30:49;95974.34;;;6.37;100.00
7990;BME280;4040;42.848;23.034;2022-11-10T20:36:38;95984.94;;;6.33;100.00
7990;BME280;4040;42.848;23.034;2022-11-10T20:46:50;95987.63;;;6.49;100.00
7990;BME280;4040;42.848;23.034;2022-11-10T20:52:39;95989.50;;;6.48;100.00
7990;BME280;4040;42.848;23.034;2022-11-10T20:58:28;95988.03;;;6.66;100.00
7990;BME280;4040;42.848;23.034;2022-11-10T21:04:18;95985.06;;;6.71;100.00
7990;BME280;4040;42.848;23.034;2022-11-10T21:10:07;95991.59;;;6.89;100.00
7990;BME280;4040;42.848;23.034;2022-11-10T21:15:57;96002.41;;;6.93;100.00
7990;BME280;4040;42.848;23.034;2022-11-10T21:21:47;96000.78;;;6.88;100.00
7990;BME280;4040;42.848;23.034;2022-11-10T21:27:37;96003.53;;;6.92;100.00
7990;BME280;4040;42.848;23.034;2022-11-10T21:33:26;96019.88;;;6.71;100.00
7990;BME280;4040;42.848;23.034;2022-11-10T21:39:15;96030.44;;;6.49;100.00
7990;BME280;4040;42.848;23.034;2022-11-10T21:49:25;96036.91;;;6.32;100.00
7990;BME280;4040;42.848;23.034;2022-11-10T21:55:16;96044.31;;;6.23;100.00
7990;BME280;4040;42.848;23.034;2022-11-10T22:01:05;96032.72;;;6.19;100.00
7990;BME280;4040;42.848;23.034;2022-11-10T22:06:55;96045.72;;;6.05;100.00
7990;BME280;4040;42.848;23.034;2022-11-10T22:13:02;96050.28;;;5.89;100.00
7990;BME280;4040;42.848;23.034;2022-11-10T22:19:18;96056.19;;;5.83;100.00
7990;BME280;4040;42.848;23.034;2022-11-10T22:25:07;96057.00;;;5.71;100.00
7990;BME280;4040;42.848;23.034;2022-11-10T22:30:57;96058.59;;;5.60;100.00
7990;BME280;4040;42.848;23.034;2022-11-10T22:36:46;96056.38;;;5.62;100.00
7990;BME280;4040;42.848;23.034;2022-11-10T22:42:36;96058.97;;;5.86;100.00
7990;BME280;4040;42.848;23.034;2022-11-10T22:48:43;96066.00;;;6.06;100.00
7990;BME280;4040;42.848;23.034;2022-11-10T22:54:32;96078.19;;;6.19;100.00
7990;BME280;4040;42.848;23.034;2022-11-10T23:18:54;96093.44;;;7.08;100.00
7990;BME280;4040;42.848;23.034;2022-11-10T23:24:43;96020.41;;;6.61;100.00
7990;BME280;4040;42.848;23.034;2022-11-10T23:30:32;96058.78;;;7.15;100.00
7990;BME280;4040;42.848;23.034;2022-11-10T23:36:23;96103.53;;;7.64;100.00
7990;BME280;4040;42.848;23.034;2022-11-10T23:42:12;96100.88;;;7.83;100.00
7990;BME280;4040;42.848;23.034;2022-11-10T23:48:00;96099.94;;;7.76;100.00
7990;BME280;4040;42.848;23.034;2022-11-10T23:53:50;96098.13;;;7.80;100.00
7990;BME280;4040;42.848;23.034;2022-11-10T23:59:39;96096.91;;;7.77;100.00
